METAR EVRA 052350Z 21012KT 9999 FEW016 BKN022 OVC030 05/03 Q1005 R18/190095 NOSIG =

Latvia vACC - Sector File Downloads

Latest EVRR sector file for EuroScope.

Alternatively to be downloaded from within the Euroscope.

Download Sector file here

 
 

Baltic sector file AIRAC 1312 for VRC Radar client

Download Sector file here

 

 

 

Controllers Online

PositionControllerOnline
No controllers currently online

Booked ATC Today

Position Start End
EVRA_TWR 17:00 21:00
EVRA_M_TWR 17:00 21:00
EVRR_CTR 17:00 21:00
* Times are UTC

The time is now

UTC: 

Local: 

Latvia vACC on twitter